Time;durP1;ratioP1;P1;durP2;ratioP2;P2;SDS_P1;SDS_P2;PMS_P1;PMS_P2;Temp;Humidity;BMP_temperature;BMP_pressure;BME280_temperature;BME280_humidity;BME280_pressure;Samples;Min_cycle;Max_cycle;Signal;HPM_P1;HPM_P2
2023/12/15 15:08:21;;;;;;;113.68;42.10;;;2.20;1.00;;;;;;5102358;27;20391;-54
2023/12/15 15:10:47;;;;;;;124.60;46.87;;;2.10;1.00;;;;;;5092911;28;20059;-51
2023/12/15 15:13:13;;;;;;;103.00;46.63;;;2.10;1.00;;;;;;5093623;28;20513;-50
2023/12/15 15:15:39;;;;;;;99.57;46.92;;;2.10;1.00;;;;;;5091902;28;20028;-54
2023/12/15 15:18:05;;;;;;;105.18;48.53;;;2.10;99.90;;;;;;5093414;28;20038;-55
2023/12/15 15:20:31;;;;;;;113.78;51.20;;;2.10;99.90;;;;;;5093224;28;20073;-55
2023/12/15 15:22:57;;;;;;;118.00;57.40;;;2.10;1.00;;;;;;5091841;28;20032;-60
2023/12/15 15:25:22;;;;;;;123.60;58.70;;;2.10;1.00;;;;;;5093239;28;20016;-50
2023/12/15 15:27:48;;;;;;;129.52;59.60;;;2.10;1.00;;;;;;5095524;28;20042;-55
2023/12/15 15:30:14;;;;;;;121.00;57.25;;;2.20;1.00;;;;;;5094767;28;20034;-51
2023/12/15 15:32:39;;;;;;;130.23;60.63;;;2.10;6.60;;;;;;5093522;28;20066;-48
2023/12/15 15:35:07;;;;;;;123.95;58.15;;;2.10;99.90;;;;;;5092820;28;20028;-50
2023/12/15 15:37:36;;;;;;;120.20;56.72;;;2.20;99.90;;;;;;5091367;28;20142;-51
2023/12/15 15:40:05;;;;;;;116.25;54.28;;;2.20;1.00;;;;;;5092724;28;20110;-52
2023/12/15 15:42:31;;;;;;;114.63;52.83;;;2.10;1.00;;;;;;5093918;28;20099;-54
2023/12/15 15:45:00;;;;;;;117.70;54.58;;;2.10;99.90;;;;;;5092028;28;20032;-47
2023/12/15 15:47:25;;;;;;;113.00;53.75;;;2.10;1.00;;;;;;5092609;28;20031;-51
2023/12/15 15:49:51;;;;;;;115.13;55.17;;;2.20;1.00;;;;;;5093506;28;20028;-55
2023/12/15 15:52:17;;;;;;;108.53;50.70;;;2.10;25.80;;;;;;5091304;28;20028;-54
2023/12/15 15:54:43;;;;;;;108.63;50.78;;;2.20;99.90;;;;;;5092219;28;20024;-54
2023/12/15 15:57:08;;;;;;;115.68;54.97;;;2.20;1.00;;;;;;5092782;28;20048;-50
2023/12/15 15:59:34;;;;;;;122.60;55.97;;;2.10;1.00;;;;;;5090657;28;20043;-46
2023/12/15 16:02:00;;;;;;;125.10;57.47;;;2.10;35.10;;;;;;5087690;28;20028;-56
2023/12/15 16:04:25;;;;;;;117.63;55.70;;;2.00;99.90;;;;;;5064866;28;20531;-49
2023/12/15 16:06:51;;;;;;;123.07;56.90;;;2.00;99.90;;;;;;5082230;28;20052;-49
2023/12/15 16:09:17;;;;;;;118.90;58.83;;;2.00;99.90;;;;;;5082497;28;20082;-51
2023/12/15 16:11:43;;;;;;;119.60;57.73;;;2.00;99.90;;;;;;5082714;28;20036;-48
2023/12/15 16:14:09;;;;;;;118.03;57.35;;;2.00;1.00;;;;;;5082787;28;20028;-56
2023/12/15 16:16:35;;;;;;;121.28;60.35;;;2.00;67.20;;;;;;5082884;28;20611;-51
2023/12/15 16:19:01;;;;;;;134.68;65.88;;;1.90;99.90;;;;;;5073941;28;20029;-56
2023/12/15 16:21:26;;;;;;;139.63;63.97;;;2.00;99.90;;;;;;5069610;28;20025;-56
2023/12/15 16:23:52;;;;;;;141.88;67.15;;;1.90;99.90;;;;;;5068650;28;20029;-50
2023/12/15 16:26:19;;;;;;;149.90;71.15;;;1.90;27.60;;;;;;5069538;28;20062;-50
2023/12/15 16:28:45;;;;;;;160.75;78.82;;;1.80;29.10;;;;;;5068501;28;20036;-52
2023/12/15 16:31:15;;;;;;;166.45;79.93;;;1.90;99.90;;;;;;5068286;28;20037;-46
2023/12/15 16:33:41;;;;;;;174.77;85.03;;;1.80;1.00;;;;;;5068331;28;20639;-50
2023/12/15 16:36:07;;;;;;;189.32;90.25;;;1.70;1.00;;;;;;5068239;28;20035;-52
2023/12/15 16:38:33;;;;;;;183.25;89.25;;;1.70;99.90;;;;;;5049850;28;20489;-56
2023/12/15 16:40:59;;;;;;;191.15;90.78;;;1.70;99.90;;;;;;5068245;28;20111;-57
2023/12/15 16:43:25;;;;;;;182.88;85.47;;;1.70;99.90;;;;;;5068166;28;20028;-57
2023/12/15 16:45:50;;;;;;;189.20;86.15;;;1.60;1.00;;;;;;5068180;28;20040;-53
2023/12/15 16:48:16;;;;;;;176.15;85.68;;;1.60;99.90;;;;;;5068058;28;20138;-53
2023/12/15 16:50:41;;;;;;;177.55;84.78;;;1.60;99.90;;;;;;5067717;28;20032;-48
2023/12/15 16:53:07;;;;;;;179.73;84.60;;;1.60;99.90;;;;;;5050471;28;20017;-59
2023/12/15 16:55:33;;;;;;;178.00;87.25;;;1.60;99.90;;;;;;5068162;28;20399;-53
2023/12/15 16:57:58;;;;;;;170.52;80.25;;;1.60;99.90;;;;;;5067829;28;20033;-49
2023/12/15 17:00:25;;;;;;;164.88;75.38;;;1.60;1.00;;;;;;5068016;28;20687;-52
2023/12/15 17:02:51;;;;;;;153.15;72.38;;;1.50;99.90;;;;;;5068085;28;20040;-52
2023/12/15 17:05:16;;;;;;;142.48;68.85;;;1.50;94.60;;;;;;5067943;28;20382;-53
2023/12/15 17:07:42;;;;;;;145.50;67.53;;;1.50;1.00;;;;;;5067381;28;20962;-48
2023/12/15 17:10:08;;;;;;;131.63;65.88;;;1.50;24.40;;;;;;5067654;28;20024;-51
2023/12/15 17:12:33;;;;;;;134.70;63.83;;;1.50;99.90;;;;;;5067318;28;20032;-52
2023/12/15 17:15:00;;;;;;;143.32;67.05;;;1.50;99.90;;;;;;5067834;28;20052;-56
2023/12/15 17:17:26;;;;;;;148.60;67.13;;;1.50;99.90;;;;;;5067619;28;21220;-53
2023/12/15 17:19:52;;;;;;;158.23;68.00;;;1.50;1.00;;;;;;5067910;28;20025;-51
2023/12/15 17:22:18;;;;;;;141.10;67.68;;;1.50;1.00;;;;;;5067814;28;20021;-53
2023/12/15 17:24:46;;;;;;;156.63;70.00;;;1.50;1.00;;;;;;5067442;28;20016;-55
2023/12/15 17:27:11;;;;;;;156.80;67.90;;;1.50;1.00;;;;;;5067673;28;20113;-55
2023/12/15 17:29:37;;;;;;;166.95;72.65;;;1.50;99.90;;;;;;5066739;28;20592;-50
2023/12/15 17:32:03;;;;;;;162.23;72.75;;;1.50;99.90;;;;;;5066857;28;20357;-57
2023/12/15 17:34:29;;;;;;;174.73;75.03;;;1.60;99.90;;;;;;5067142;28;20024;-53
2023/12/15 17:36:58;;;;;;;161.45;72.85;;;1.60;24.30;;;;;;5067164;28;20117;-49
2023/12/15 17:39:24;;;;;;;169.90;70.72;;;1.60;95.50;;;;;;5049015;28;20051;-49
2023/12/15 17:41:50;;;;;;;144.43;66.75;;;1.60;47.80;;;;;;5067151;28;20471;-51
2023/12/15 17:44:15;;;;;;;137.57;61.70;;;1.50;99.90;;;;;;5049076;28;20127;-53
2023/12/15 17:46:41;;;;;;;138.18;62.92;;;1.50;99.90;;;;;;5066519;28;20622;-51
2023/12/15 17:49:07;;;;;;;136.38;60.03;;;1.50;99.90;;;;;;5066834;28;20020;-50
2023/12/15 17:51:32;;;;;;;132.73;60.28;;;1.50;99.90;;;;;;5066954;28;20024;-50
2023/12/15 17:53:58;;;;;;;131.75;59.33;;;1.50;99.90;;;;;;5067048;28;20352;-50
2023/12/15 17:56:26;;;;;;;136.15;61.92;;;1.50;99.90;;;;;;5066601;28;20029;-54
2023/12/15 17:58:51;;;;;;;132.75;62.22;;;1.50;1.00;;;;;;5048977;28;20041;-52
2023/12/15 18:01:17;;;;;;;137.05;63.05;;;1.40;1.00;;;;;;5067003;28;20047;-55
2023/12/15 18:03:43;;;;;;;131.48;60.53;;;1.50;1.00;;;;;;5066230;28;20051;-51
2023/12/15 18:06:09;;;;;;;112.07;53.83;;;1.50;1.00;;;;;;5079957;28;20035;-49
2023/12/15 18:08:34;;;;;;;117.38;53.55;;;1.50;29.10;;;;;;5086323;28;20035;-56
2023/12/15 18:11:00;;;;;;;116.55;54.28;;;1.40;99.90;;;;;;5086793;28;20024;-53
2023/12/15 18:13:26;;;;;;;118.45;55.92;;;1.40;99.90;;;;;;5086605;28;20044;-54
2023/12/15 18:15:51;;;;;;;119.30;57.15;;;1.50;99.90;;;;;;5086678;28;20036;-55
2023/12/15 18:18:18;;;;;;;124.65;57.72;;;1.40;99.90;;;;;;5086252;28;20028;-52
2023/12/15 18:20:44;;;;;;;123.60;59.17;;;1.40;99.90;;;;;;5086186;28;20023;-53
2023/12/15 18:23:13;;;;;;;128.98;61.45;;;1.40;1.00;;;;;;5086352;28;20044;-53
2023/12/15 18:25:40;;;;;;;167.05;70.47;;;1.40;1.00;;;;;;5086294;28;20537;-54
2023/12/15 18:28:05;;;;;;;177.88;72.93;;;1.40;99.90;;;;;;5081081;28;20093;-55
2023/12/15 18:30:31;;;;;;;179.20;73.05;;;1.40;99.90;;;;;;5060930;28;20044;-52
2023/12/15 18:32:57;;;;;;;146.93;64.80;;;1.40;99.90;;;;;;5067076;28;20025;-52
2023/12/15 18:35:22;;;;;;;151.13;64.90;;;1.40;99.90;;;;;;5057833;28;20082;-47
2023/12/15 18:37:48;;;;;;;183.00;80.60;;;1.40;99.90;;;;;;5046398;28;20029;-48
2023/12/15 18:40:14;;;;;;;198.48;92.28;;;1.40;99.90;;;;;;5047375;28;20021;-47
2023/12/15 18:42:39;;;;;;;180.40;84.25;;;1.40;1.00;;;;;;5046578;28;20033;-52
2023/12/15 18:45:06;;;;;;;153.68;72.63;;;1.50;1.00;;;;;;5046786;28;20040;-55
2023/12/15 18:47:32;;;;;;;146.88;66.78;;;1.50;1.00;;;;;;5046104;28;20447;-46
2023/12/15 18:50:01;;;;;;;143.18;64.78;;;1.50;1.00;;;;;;5046989;28;20022;-52
2023/12/15 18:52:27;;;;;;;140.75;62.95;;;1.50;1.00;;;;;;5045955;28;20384;-48
2023/12/15 18:54:53;;;;;;;142.27;65.10;;;1.50;1.00;;;;;;5044774;28;20033;-48
2023/12/15 18:57:20;;;;;;;140.25;63.75;;;1.50;1.00;;;;;;5044171;28;20035;-53
2023/12/15 18:59:46;;;;;;;;;;;1.50;1.00;;;;;;5064404;28;20041;-50
2023/12/15 19:02:12;;;;;;;131.57;57.47;;;1.50;1.00;;;;;;5065795;28;19915;-50
2023/12/15 19:04:40;;;;;;;146.93;64.70;;;1.40;1.00;;;;;;5065342;28;20027;-52
2023/12/15 19:07:06;;;;;;;149.48;63.95;;;1.50;1.00;;;;;;5065686;28;20064;-48
2023/12/15 19:09:33;;;;;;;150.32;64.30;;;1.50;1.00;;;;;;5047458;28;20035;-53
2023/12/15 19:11:58;;;;;;;148.97;62.50;;;1.60;1.00;;;;;;5055580;28;20032;-49
2023/12/15 19:14:24;;;;;;;152.20;66.35;;;1.50;1.00;;;;;;5045613;28;20045;-51
2023/12/15 19:16:50;;;;;;;153.85;70.05;;;1.60;27.60;;;;;;5045241;28;20151;-51
2023/12/15 19:19:16;;;;;;;160.68;70.95;;;1.70;1.00;;;;;;5045711;28;20040;-54
2023/12/15 19:21:42;;;;;;;156.77;71.50;;;1.60;99.90;;;;;;5045913;28;20033;-51
2023/12/15 19:24:08;;;;;;;157.25;70.38;;;1.60;99.90;;;;;;5045673;28;20033;-52
2023/12/15 19:26:33;;;;;;;162.27;71.72;;;1.60;99.90;;;;;;5045401;28;20072;-48
2023/12/15 19:29:00;;;;;;;159.88;69.20;;;1.50;99.90;;;;;;5045627;28;20073;-53
2023/12/15 19:31:26;;;;;;;168.93;73.68;;;1.60;99.90;;;;;;5045510;28;20502;-51
2023/12/15 19:33:53;;;;;;;164.23;72.90;;;1.50;99.90;;;;;;5045487;28;20531;-50
2023/12/15 19:36:19;;;;;;;171.70;76.90;;;1.60;99.90;;;;;;5045847;28;20472;-52
2023/12/15 19:38:45;;;;;;;184.35;81.80;;;1.60;99.90;;;;;;5044945;28;20040;-51
2023/12/15 19:41:21;;;;;;;172.90;74.97;;;1.60;99.90;;;;;;5045744;28;20033;-49
2023/12/15 19:43:48;;;;;;;177.10;74.88;;;1.50;99.90;;;;;;5045021;28;20120;-50
2023/12/15 19:46:21;;;;;;;172.07;70.57;;;1.50;1.00;;;;;;5027562;28;20361;-55
2023/12/15 19:48:47;;;;;;;178.35;75.28;;;1.40;68.30;;;;;;5045806;28;20110;-51
2023/12/15 19:51:20;;;;;;;189.45;77.72;;;1.50;99.90;;;;;;5045734;28;20623;-50
2023/12/15 19:53:46;;;;;;;169.07;72.72;;;1.50;99.90;;;;;;5047276;28;20036;-53
2023/12/15 19:56:24;;;;;;;155.57;72.72;;;1.40;99.90;;;;;;5049224;28;20027;-51
2023/12/15 19:58:51;;;;;;;169.52;75.72;;;1.40;99.90;;;;;;5056157;28;20620;-54
2023/12/15 20:01:26;;;;;;;165.52;77.00;;;1.50;1.00;;;;;;5069513;28;20040;-55
2023/12/15 20:03:55;;;;;;;173.93;81.07;;;1.50;99.90;;;;;;5068931;28;20117;-54
2023/12/15 20:06:27;;;;;;;174.02;81.10;;;1.50;1.00;;;;;;5068503;28;20091;-53
2023/12/15 20:08:53;;;;;;;171.77;74.90;;;1.40;74.80;;;;;;5050277;28;20039;-52
2023/12/15 20:11:19;;;;;;;161.45;75.80;;;1.40;1.00;;;;;;5068684;28;20020;-49
2023/12/15 20:13:46;;;;;;;165.10;79.45;;;1.40;16.60;;;;;;5068216;28;20040;-48
2023/12/15 20:16:16;;;;;;;169.82;84.25;;;1.40;74.00;;;;;;5068875;28;20101;-51
2023/12/15 20:18:46;;;;;;;157.35;71.68;;;1.40;99.90;;;;;;5067841;28;20033;-51
2023/12/15 20:21:12;;;;;;;160.88;71.97;;;1.40;99.90;;;;;;5067159;28;20612;-53
2023/12/15 20:23:41;;;;;;;158.95;71.70;;;1.40;99.90;;;;;;5067830;28;20032;-52
2023/12/15 20:26:08;;;;;;;152.80;69.32;;;1.40;1.00;;;;;;5067755;28;20052;-49
2023/12/15 20:28:34;;;;;;;;;;;1.50;1.00;;;;;;5067675;28;20032;-53
2023/12/15 20:31:00;;;;;;;144.48;65.45;;;1.50;1.00;;;;;;5067421;28;19908;-50
2023/12/15 20:33:25;;;;;;;142.25;65.40;;;1.50;1.00;;;;;;5067915;28;20498;-54
2023/12/15 20:35:51;;;;;;;136.88;65.75;;;1.50;1.00;;;;;;5068003;28;20021;-53
2023/12/15 20:38:17;;;;;;;162.07;68.22;;;1.50;1.00;;;;;;5068055;28;20029;-49
2023/12/15 20:40:44;;;;;;;148.00;67.85;;;1.50;1.00;;;;;;5068544;28;20020;-55
2023/12/15 20:43:10;;;;;;;169.57;68.80;;;1.50;1.00;;;;;;5068522;28;20067;-52
2023/12/15 20:45:36;;;;;;;160.27;71.78;;;1.50;1.00;;;;;;5068709;28;20317;-57
2023/12/15 20:48:03;;;;;;;144.88;63.10;;;1.50;99.90;;;;;;5067715;28;20044;-52
2023/12/15 20:50:28;;;;;;;;;;;1.50;99.90;;;;;;5068508;28;20060;-51
2023/12/15 20:52:54;;;;;;;144.73;62.38;;;1.50;99.90;;;;;;5067667;28;19986;-51
2023/12/15 20:55:20;;;;;;;158.80;69.22;;;1.50;99.90;;;;;;5068041;28;20021;-52
2023/12/15 20:57:46;;;;;;;276.13;98.28;;;1.50;99.90;;;;;;5067941;28;20060;-53
2023/12/15 21:00:14;;;;;;;342.20;111.65;;;1.50;99.90;;;;;;5067792;28;20124;-50
2023/12/15 21:02:40;;;;;;;301.33;105.50;;;1.50;99.90;;;;;;5067266;28;20040;-47
2023/12/15 21:05:09;;;;;;;205.07;78.07;;;1.50;99.90;;;;;;5054420;28;20041;-47
2023/12/15 21:07:36;;;;;;;160.20;65.13;;;1.50;1.00;;;;;;5047186;28;20053;-55
2023/12/15 21:10:03;;;;;;;133.32;56.70;;;1.60;1.00;;;;;;5047633;28;20110;-51
2023/12/15 21:12:29;;;;;;;145.80;63.58;;;1.60;99.90;;;;;;5047571;28;20037;-50
2023/12/15 21:14:55;;;;;;;159.48;66.05;;;1.60;99.90;;;;;;5048142;28;20040;-52
2023/12/15 21:17:21;;;;;;;173.65;71.32;;;1.60;99.90;;;;;;5047171;28;20031;-51
2023/12/15 21:19:47;;;;;;;177.90;74.20;;;1.60;99.90;;;;;;5047400;28;20021;-48
2023/12/15 21:22:13;;;;;;;179.60;73.93;;;1.50;99.90;;;;;;5047974;28;20048;-53
2023/12/15 21:24:41;;;;;;;168.77;74.30;;;1.60;99.90;;;;;;5046291;28;20130;-56
2023/12/15 21:27:07;;;;;;;163.80;70.97;;;1.50;99.90;;;;;;5046612;28;20072;-54
2023/12/15 21:29:32;;;;;;;157.00;66.63;;;1.50;1.00;;;;;;5047183;28;20114;-50
2023/12/15 21:31:58;;;;;;;152.35;65.40;;;1.50;1.00;;;;;;5046970;28;20021;-48
2023/12/15 21:34:24;;;;;;;152.00;66.50;;;1.50;1.00;;;;;;5046816;28;20032;-53
2023/12/15 21:36:49;;;;;;;148.45;66.90;;;1.60;1.00;;;;;;5046764;28;20043;-53
2023/12/15 21:39:15;;;;;;;155.27;67.20;;;1.50;99.90;;;;;;5047737;28;20072;-56
2023/12/15 21:41:41;;;;;;;159.82;64.80;;;1.60;99.90;;;;;;5047205;28;20122;-47
2023/12/15 21:44:07;;;;;;;151.02;63.20;;;1.50;1.00;;;;;;5046124;28;20066;-51
2023/12/15 21:46:39;;;;;;;151.57;64.50;;;1.50;74.40;;;;;;5048131;28;20044;-50
2023/12/15 21:49:09;;;;;;;161.52;67.07;;;1.50;24.60;;;;;;5047637;28;20599;-50
2023/12/15 21:51:36;;;;;;;157.70;68.53;;;1.50;87.10;;;;;;5046379;28;20032;-49
2023/12/15 21:54:04;;;;;;;151.65;64.18;;;1.60;53.30;;;;;;5046664;28;20056;-50
2023/12/15 21:56:30;;;;;;;143.60;61.40;;;1.60;57.20;;;;;;5046392;28;20036;-55
2023/12/15 21:58:55;;;;;;;148.52;61.65;;;1.60;99.90;;;;;;5046597;28;20561;-52
2023/12/15 22:01:22;;;;;;;151.48;61.78;;;1.70;99.90;;;;;;5046633;28;20052;-49
2023/12/15 22:03:51;;;;;;;155.52;63.40;;;1.70;97.70;;;;;;5046468;28;20143;-53
2023/12/15 22:06:19;;;;;;;152.63;62.45;;;1.60;99.90;;;;;;5046136;28;20091;-53
2023/12/15 22:08:46;;;;;;;163.00;62.97;;;1.70;99.90;;;;;;5046372;28;20033;-51
2023/12/15 22:11:12;;;;;;;151.55;62.83;;;1.60;99.90;;;;;;5046486;28;20039;-49
2023/12/15 22:13:40;;;;;;;142.82;60.63;;;1.60;99.90;;;;;;5046279;28;20025;-50
2023/12/15 22:16:06;;;;;;;143.50;59.13;;;1.60;99.90;;;;;;5046315;28;20071;-55
2023/12/15 22:18:32;;;;;;;141.48;60.30;;;1.60;99.90;;;;;;5047075;28;20131;-53
2023/12/15 22:20:58;;;;;;;142.88;56.88;;;1.60;99.90;;;;;;5046044;28;20148;-50
2023/12/15 22:23:24;;;;;;;155.45;62.50;;;1.60;99.90;;;;;;5046878;28;20036;-51
2023/12/15 22:25:50;;;;;;;156.05;65.63;;;1.60;99.90;;;;;;5046296;28;20471;-47
2023/12/15 22:28:16;;;;;;;130.88;58.08;;;1.70;99.90;;;;;;5046446;28;20534;-48
2023/12/15 22:30:42;;;;;;;131.73;56.95;;;1.70;99.90;;;;;;5046032;28;20029;-55
2023/12/15 22:33:08;;;;;;;143.82;62.72;;;1.80;99.90;;;;;;5046153;28;20025;-51
2023/12/15 22:35:33;;;;;;;142.25;62.88;;;1.70;99.90;;;;;;5054630;28;20052;-47
2023/12/15 22:37:59;;;;;;;137.80;62.17;;;1.70;99.90;;;;;;5066309;28;20049;-54
2023/12/15 22:40:25;;;;;;;126.15;56.42;;;1.70;1.00;;;;;;5066319;28;20615;-53
2023/12/15 22:42:50;;;;;;;137.43;57.67;;;1.70;1.00;;;;;;5065394;28;20841;-54
2023/12/15 22:45:16;;;;;;;129.32;60.38;;;1.80;99.90;;;;;;5065828;28;20028;-46
2023/12/15 22:47:42;;;;;;;125.15;58.72;;;1.80;1.00;;;;;;5066298;28;20040;-50
2023/12/15 22:50:08;;;;;;;124.57;58.38;;;1.70;1.00;;;;;;5066082;28;20545;-49
2023/12/15 22:52:34;;;;;;;136.10;61.67;;;1.70;99.90;;;;;;5066251;28;20021;-53
2023/12/15 22:54:59;;;;;;;139.18;63.42;;;1.70;1.00;;;;;;5066119;28;20036;-50
2023/12/15 22:57:25;;;;;;;142.20;61.05;;;1.70;1.00;;;;;;5074885;28;20034;-49
2023/12/15 22:59:51;;;;;;;137.25;58.17;;;1.70;1.00;;;;;;5075280;28;20024;-51
2023/12/15 23:02:17;;;;;;;126.33;54.57;;;1.70;99.90;;;;;;5076200;28;20048;-53
2023/12/15 23:04:43;;;;;;;114.80;50.53;;;1.70;99.90;;;;;;5074393;28;20278;-54
2023/12/15 23:07:09;;;;;;;106.60;48.10;;;1.70;99.90;;;;;;5075693;28;20060;-52
2023/12/15 23:09:34;;;;;;;102.43;46.70;;;1.80;1.00;;;;;;5076040;28;20088;-50
2023/12/15 23:12:01;;;;;;;99.20;45.83;;;1.80;1.00;;;;;;5073675;28;20025;-52
2023/12/15 23:14:27;;;;;;;102.28;46.65;;;1.80;99.90;;;;;;5075885;28;20116;-49
2023/12/15 23:16:53;;;;;;;91.57;40.83;;;1.90;99.90;;;;;;5075462;28;20037;-48
2023/12/15 23:19:18;;;;;;;86.88;39.75;;;1.90;1.00;;;;;;5074034;28;20032;-52
2023/12/15 23:21:45;;;;;;;82.35;38.72;;;1.90;99.90;;;;;;5076169;28;20742;-51
2023/12/15 23:24:12;;;;;;;84.03;39.08;;;1.90;99.90;;;;;;5074996;28;20614;-50
2023/12/15 23:26:38;;;;;;;81.15;39.15;;;1.90;99.90;;;;;;5074078;28;20062;-49
2023/12/15 23:29:04;;;;;;;81.47;37.50;;;1.90;99.90;;;;;;5078251;28;20085;-52
2023/12/15 23:31:30;;;;;;;87.03;39.90;;;2.00;89.30;;;;;;5078975;28;20028;-52
2023/12/15 23:33:56;;;;;;;85.77;39.50;;;1.90;2.30;;;;;;5078332;28;20667;-51
2023/12/15 23:36:22;;;;;;;87.78;40.60;;;1.90;1.00;;;;;;5080240;28;20024;-50
2023/12/15 23:38:54;;;;;;;89.35;40.60;;;1.90;1.00;;;;;;5078451;28;20480;-47
2023/12/15 23:41:22;;;;;;;86.68;40.80;;;1.90;13.10;;;;;;5077993;28;20021;-49
2023/12/15 23:43:47;;;;;;;93.30;43.58;;;1.90;6.90;;;;;;5079838;28;20031;-46
2023/12/15 23:46:13;;;;;;;86.43;39.97;;;1.90;99.90;;;;;;5079037;28;20029;-48
2023/12/15 23:48:39;;;;;;;86.05;41.20;;;1.90;99.90;;;;;;5070231;28;20369;-53
2023/12/15 23:51:05;;;;;;;85.40;40.40;;;2.00;99.90;;;;;;5069926;28;20460;-52
2023/12/15 23:53:30;;;;;;;87.20;43.53;;;1.90;99.90;;;;;;5069786;28;20025;-50
2023/12/15 23:55:58;;;;;;;87.55;41.83;;;2.00;1.00;;;;;;5069653;28;20021;-54
2023/12/15 23:58:24;;;;;;;84.15;41.28;;;1.90;99.90;;;;;;5050256;28;20124;-47
